sensor_id;sensor_type;location;lat;lon;timestamp;P1;durP1;ratioP1;P2;durP2;ratioP2
49824;SDS011;35714;55.708;37.478;2023-06-26T00:00:20;12.63;;;6.50;;
49824;SDS011;35714;55.708;37.478;2023-06-26T00:02:46;14.30;;;6.15;;
49824;SDS011;35714;55.708;37.478;2023-06-26T00:05:11;18.02;;;6.45;;
49824;SDS011;35714;55.708;37.478;2023-06-26T00:07:39;10.38;;;6.30;;
49824;SDS011;35714;55.708;37.478;2023-06-26T00:10:05;23.55;;;7.40;;
49824;SDS011;35714;55.708;37.478;2023-06-26T00:12:32;15.43;;;7.40;;
49824;SDS011;35714;55.708;37.478;2023-06-26T00:14:58;17.40;;;7.75;;
49824;SDS011;35714;55.708;37.478;2023-06-26T00:17:24;17.52;;;8.02;;
49824;SDS011;35714;55.708;37.478;2023-06-26T00:19:50;19.92;;;8.68;;
49824;SDS011;35714;55.708;37.478;2023-06-26T00:22:17;22.73;;;8.77;;
49824;SDS011;35714;55.708;37.478;2023-06-26T00:24:43;17.98;;;8.50;;
49824;SDS011;35714;55.708;37.478;2023-06-26T00:27:10;17.73;;;8.30;;
49824;SDS011;35714;55.708;37.478;2023-06-26T00:29:36;20.23;;;7.82;;
49824;SDS011;35714;55.708;37.478;2023-06-26T00:32:04;18.67;;;7.47;;
49824;SDS011;35714;55.708;37.478;2023-06-26T00:34:32;16.42;;;8.18;;
49824;SDS011;35714;55.708;37.478;2023-06-26T00:36:58;16.00;;;6.75;;
49824;SDS011;35714;55.708;37.478;2023-06-26T00:39:25;15.93;;;8.13;;
49824;SDS011;35714;55.708;37.478;2023-06-26T00:41:51;14.45;;;6.78;;
49824;SDS011;35714;55.708;37.478;2023-06-26T00:44:19;15.02;;;6.93;;
49824;SDS011;35714;55.708;37.478;2023-06-26T00:46:45;12.02;;;6.15;;
49824;SDS011;35714;55.708;37.478;2023-06-26T00:49:11;13.57;;;7.18;;
49824;SDS011;35714;55.708;37.478;2023-06-26T00:51:38;9.18;;;6.25;;
49824;SDS011;35714;55.708;37.478;2023-06-26T00:54:04;11.80;;;6.25;;
49824;SDS011;35714;55.708;37.478;2023-06-26T00:56:30;14.93;;;6.97;;
49824;SDS011;35714;55.708;37.478;2023-06-26T00:58:57;15.13;;;7.43;;
49824;SDS011;35714;55.708;37.478;2023-06-26T01:01:25;16.17;;;7.38;;
49824;SDS011;35714;55.708;37.478;2023-06-26T01:03:51;11.80;;;6.80;;
49824;SDS011;35714;55.708;37.478;2023-06-26T01:06:23;22.98;;;7.53;;
49824;SDS011;35714;55.708;37.478;2023-06-26T01:08:49;13.52;;;7.78;;
49824;SDS011;35714;55.708;37.478;2023-06-26T01:11:17;15.98;;;7.47;;
49824;SDS011;35714;55.708;37.478;2023-06-26T01:13:44;14.45;;;8.10;;
49824;SDS011;35714;55.708;37.478;2023-06-26T01:16:10;15.13;;;8.00;;
49824;SDS011;35714;55.708;37.478;2023-06-26T01:18:37;16.90;;;7.68;;
49824;SDS011;35714;55.708;37.478;2023-06-26T01:21:09;15.77;;;6.85;;
49824;SDS011;35714;55.708;37.478;2023-06-26T01:26:20;16.45;;;7.47;;
49824;SDS011;35714;55.708;37.478;2023-06-26T01:28:47;16.15;;;8.02;;
49824;SDS011;35714;55.708;37.478;2023-06-26T01:31:16;15.88;;;8.40;;
49824;SDS011;35714;55.708;37.478;2023-06-26T01:33:43;13.93;;;6.93;;
49824;SDS011;35714;55.708;37.478;2023-06-26T01:36:09;14.90;;;6.75;;
49824;SDS011;35714;55.708;37.478;2023-06-26T01:38:35;16.90;;;7.13;;
49824;SDS011;35714;55.708;37.478;2023-06-26T01:41:01;15.63;;;7.13;;
49824;SDS011;35714;55.708;37.478;2023-06-26T01:43:29;18.42;;;8.10;;
49824;SDS011;35714;55.708;37.478;2023-06-26T01:45:58;21.17;;;7.63;;
49824;SDS011;35714;55.708;37.478;2023-06-26T01:48:33;14.73;;;8.18;;
49824;SDS011;35714;55.708;37.478;2023-06-26T01:51:03;13.05;;;7.40;;
49824;SDS011;35714;55.708;37.478;2023-06-26T01:53:36;15.63;;;7.28;;
49824;SDS011;35714;55.708;37.478;2023-06-26T01:56:08;14.93;;;8.13;;
49824;SDS011;35714;55.708;37.478;2023-06-26T01:58:43;18.20;;;8.05;;
49824;SDS011;35714;55.708;37.478;2023-06-26T02:01:11;14.75;;;7.07;;
49824;SDS011;35714;55.708;37.478;2023-06-26T02:03:37;18.27;;;8.27;;
49824;SDS011;35714;55.708;37.478;2023-06-26T02:06:03;13.13;;;7.15;;
49824;SDS011;35714;55.708;37.478;2023-06-26T02:08:28;12.23;;;7.72;;
49824;SDS011;35714;55.708;37.478;2023-06-26T02:10:56;17.38;;;7.72;;
49824;SDS011;35714;55.708;37.478;2023-06-26T02:13:23;13.00;;;7.45;;
49824;SDS011;35714;55.708;37.478;2023-06-26T02:15:48;15.73;;;7.93;;
49824;SDS011;35714;55.708;37.478;2023-06-26T02:18:14;16.20;;;8.75;;
49824;SDS011;35714;55.708;37.478;2023-06-26T02:20:40;17.98;;;8.05;;
49824;SDS011;35714;55.708;37.478;2023-06-26T02:23:06;14.23;;;7.30;;
49824;SDS011;35714;55.708;37.478;2023-06-26T02:25:35;13.93;;;7.03;;
49824;SDS011;35714;55.708;37.478;2023-06-26T02:28:00;10.90;;;7.25;;
49824;SDS011;35714;55.708;37.478;2023-06-26T02:30:26;12.68;;;6.60;;
49824;SDS011;35714;55.708;37.478;2023-06-26T02:32:52;12.20;;;7.28;;
49824;SDS011;35714;55.708;37.478;2023-06-26T02:35:18;11.35;;;7.15;;
49824;SDS011;35714;55.708;37.478;2023-06-26T02:37:43;13.80;;;6.90;;
49824;SDS011;35714;55.708;37.478;2023-06-26T02:40:10;14.40;;;7.30;;
49824;SDS011;35714;55.708;37.478;2023-06-26T02:42:37;14.85;;;9.15;;
49824;SDS011;35714;55.708;37.478;2023-06-26T02:45:04;16.50;;;9.05;;
49824;SDS011;35714;55.708;37.478;2023-06-26T02:47:32;16.50;;;7.93;;
49824;SDS011;35714;55.708;37.478;2023-06-26T02:49:58;13.38;;;8.20;;
49824;SDS011;35714;55.708;37.478;2023-06-26T02:52:24;17.13;;;8.02;;
49824;SDS011;35714;55.708;37.478;2023-06-26T02:54:49;13.00;;;7.55;;
49824;SDS011;35714;55.708;37.478;2023-06-26T02:57:15;20.38;;;9.05;;
49824;SDS011;35714;55.708;37.478;2023-06-26T02:59:42;15.02;;;8.35;;
49824;SDS011;35714;55.708;37.478;2023-06-26T03:02:10;15.75;;;7.97;;
49824;SDS011;35714;55.708;37.478;2023-06-26T03:04:40;18.20;;;8.10;;
49824;SDS011;35714;55.708;37.478;2023-06-26T03:07:10;13.50;;;8.75;;
49824;SDS011;35714;55.708;37.478;2023-06-26T03:09:37;15.63;;;10.00;;
49824;SDS011;35714;55.708;37.478;2023-06-26T03:12:03;15.57;;;8.85;;
49824;SDS011;35714;55.708;37.478;2023-06-26T03:14:32;16.85;;;9.35;;
49824;SDS011;35714;55.708;37.478;2023-06-26T03:16:58;12.07;;;8.48;;
49824;SDS011;35714;55.708;37.478;2023-06-26T03:19:26;17.55;;;9.07;;
49824;SDS011;35714;55.708;37.478;2023-06-26T03:22:10;19.05;;;8.52;;
49824;SDS011;35714;55.708;37.478;2023-06-26T03:24:35;12.98;;;8.50;;
49824;SDS011;35714;55.708;37.478;2023-06-26T03:27:01;14.07;;;8.80;;
49824;SDS011;35714;55.708;37.478;2023-06-26T03:29:27;18.20;;;9.68;;
49824;SDS011;35714;55.708;37.478;2023-06-26T03:31:55;18.42;;;9.35;;
49824;SDS011;35714;55.708;37.478;2023-06-26T03:34:21;17.65;;;9.68;;
49824;SDS011;35714;55.708;37.478;2023-06-26T03:36:47;14.45;;;9.55;;
49824;SDS011;35714;55.708;37.478;2023-06-26T03:39:13;13.98;;;9.45;;
49824;SDS011;35714;55.708;37.478;2023-06-26T03:41:39;14.43;;;9.80;;
49824;SDS011;35714;55.708;37.478;2023-06-26T03:44:05;12.52;;;8.10;;
49824;SDS011;35714;55.708;37.478;2023-06-26T03:49:06;16.33;;;8.15;;
49824;SDS011;35714;55.708;37.478;2023-06-26T03:51:32;11.48;;;7.93;;
49824;SDS011;35714;55.708;37.478;2023-06-26T03:53:57;11.50;;;7.53;;
49824;SDS011;35714;55.708;37.478;2023-06-26T03:56:23;13.55;;;7.57;;
49824;SDS011;35714;55.708;37.478;2023-06-26T03:58:49;10.93;;;7.65;;
49824;SDS011;35714;55.708;37.478;2023-06-26T04:01:14;12.10;;;7.10;;
49824;SDS011;35714;55.708;37.478;2023-06-26T04:03:42;12.80;;;7.50;;
49824;SDS011;35714;55.708;37.478;2023-06-26T04:06:10;12.45;;;8.30;;
49824;SDS011;35714;55.708;37.478;2023-06-26T04:08:35;14.32;;;8.60;;
49824;SDS011;35714;55.708;37.478;2023-06-26T04:11:01;13.75;;;7.88;;
49824;SDS011;35714;55.708;37.478;2023-06-26T04:13:27;16.58;;;8.32;;
49824;SDS011;35714;55.708;37.478;2023-06-26T04:15:52;14.85;;;8.50;;
49824;SDS011;35714;55.708;37.478;2023-06-26T04:18:18;19.55;;;12.38;;
49824;SDS011;35714;55.708;37.478;2023-06-26T04:21:05;17.75;;;11.63;;
49824;SDS011;35714;55.708;37.478;2023-06-26T04:23:32;20.98;;;12.00;;
49824;SDS011;35714;55.708;37.478;2023-06-26T04:25:59;18.23;;;10.07;;
49824;SDS011;35714;55.708;37.478;2023-06-26T04:28:24;24.70;;;10.60;;
49824;SDS011;35714;55.708;37.478;2023-06-26T04:30:50;14.57;;;10.55;;
49824;SDS011;35714;55.708;37.478;2023-06-26T04:33:16;12.70;;;9.00;;
49824;SDS011;35714;55.708;37.478;2023-06-26T04:35:42;17.02;;;9.20;;
49824;SDS011;35714;55.708;37.478;2023-06-26T04:38:10;16.90;;;8.52;;
49824;SDS011;35714;55.708;37.478;2023-06-26T04:40:36;18.58;;;9.25;;
49824;SDS011;35714;55.708;37.478;2023-06-26T04:43:02;21.92;;;10.30;;
49824;SDS011;35714;55.708;37.478;2023-06-26T04:45:28;20.35;;;10.30;;
49824;SDS011;35714;55.708;37.478;2023-06-26T04:47:54;14.75;;;9.68;;
49824;SDS011;35714;55.708;37.478;2023-06-26T04:50:19;19.75;;;9.40;;
49824;SDS011;35714;55.708;37.478;2023-06-26T04:52:45;16.48;;;10.43;;
49824;SDS011;35714;55.708;37.478;2023-06-26T04:55:10;17.55;;;9.57;;
49824;SDS011;35714;55.708;37.478;2023-06-26T04:57:36;21.80;;;12.20;;
49824;SDS011;35714;55.708;37.478;2023-06-26T05:00:02;33.80;;;24.25;;
49824;SDS011;35714;55.708;37.478;2023-06-26T05:02:34;22.48;;;13.32;;
49824;SDS011;35714;55.708;37.478;2023-06-26T05:05:00;22.52;;;13.23;;
49824;SDS011;35714;55.708;37.478;2023-06-26T05:07:25;21.63;;;10.82;;
49824;SDS011;35714;55.708;37.478;2023-06-26T05:09:51;16.58;;;8.43;;
49824;SDS011;35714;55.708;37.478;2023-06-26T05:12:17;10.65;;;7.43;;
49824;SDS011;35714;55.708;37.478;2023-06-26T05:14:43;13.60;;;7.95;;
49824;SDS011;35714;55.708;37.478;2023-06-26T05:17:09;15.80;;;7.25;;
49824;SDS011;35714;55.708;37.478;2023-06-26T05:19:34;12.38;;;6.82;;
49824;SDS011;35714;55.708;37.478;2023-06-26T05:22:00;10.35;;;6.53;;
49824;SDS011;35714;55.708;37.478;2023-06-26T05:24:29;8.68;;;5.80;;
49824;SDS011;35714;55.708;37.478;2023-06-26T05:26:55;9.63;;;6.07;;
49824;SDS011;35714;55.708;37.478;2023-06-26T05:29:21;8.98;;;5.93;;
49824;SDS011;35714;55.708;37.478;2023-06-26T05:31:47;15.93;;;6.07;;
49824;SDS011;35714;55.708;37.478;2023-06-26T05:34:15;12.25;;;5.93;;
49824;SDS011;35714;55.708;37.478;2023-06-26T05:36:45;8.57;;;5.47;;
49824;SDS011;35714;55.708;37.478;2023-06-26T05:39:13;9.52;;;6.78;;
49824;SDS011;35714;55.708;37.478;2023-06-26T05:41:39;11.90;;;5.72;;
49824;SDS011;35714;55.708;37.478;2023-06-26T05:44:05;10.07;;;5.60;;
49824;SDS011;35714;55.708;37.478;2023-06-26T05:46:31;14.02;;;6.22;;
49824;SDS011;35714;55.708;37.478;2023-06-26T05:48:56;9.88;;;6.13;;
49824;SDS011;35714;55.708;37.478;2023-06-26T05:51:23;12.52;;;5.95;;
49824;SDS011;35714;55.708;37.478;2023-06-26T05:53:49;7.78;;;4.50;;
49824;SDS011;35714;55.708;37.478;2023-06-26T05:56:15;9.93;;;4.90;;
49824;SDS011;35714;55.708;37.478;2023-06-26T05:58:41;8.35;;;4.80;;
49824;SDS011;35714;55.708;37.478;2023-06-26T06:01:08;7.45;;;5.10;;
49824;SDS011;35714;55.708;37.478;2023-06-26T06:03:33;7.13;;;4.30;;
49824;SDS011;35714;55.708;37.478;2023-06-26T06:05:59;6.40;;;3.85;;
49824;SDS011;35714;55.708;37.478;2023-06-26T06:08:25;7.57;;;4.30;;
49824;SDS011;35714;55.708;37.478;2023-06-26T06:10:50;11.20;;;5.03;;
49824;SDS011;35714;55.708;37.478;2023-06-26T06:13:16;11.45;;;4.25;;
49824;SDS011;35714;55.708;37.478;2023-06-26T06:15:41;13.40;;;4.28;;
49824;SDS011;35714;55.708;37.478;2023-06-26T06:18:07;12.23;;;5.03;;
49824;SDS011;35714;55.708;37.478;2023-06-26T06:20:33;7.60;;;4.13;;
49824;SDS011;35714;55.708;37.478;2023-06-26T06:22:58;6.97;;;4.45;;
49824;SDS011;35714;55.708;37.478;2023-06-26T06:25:24;7.07;;;4.40;;
49824;SDS011;35714;55.708;37.478;2023-06-26T06:27:49;6.75;;;4.47;;
49824;SDS011;35714;55.708;37.478;2023-06-26T06:30:15;6.55;;;4.32;;
49824;SDS011;35714;55.708;37.478;2023-06-26T06:32:41;7.35;;;3.92;;
49824;SDS011;35714;55.708;37.478;2023-06-26T06:35:06;6.78;;;4.30;;
49824;SDS011;35714;55.708;37.478;2023-06-26T06:37:38;9.48;;;4.28;;
49824;SDS011;35714;55.708;37.478;2023-06-26T06:40:06;6.90;;;4.40;;
49824;SDS011;35714;55.708;37.478;2023-06-26T06:42:34;8.43;;;4.43;;
49824;SDS011;35714;55.708;37.478;2023-06-26T06:45:02;5.82;;;3.88;;
49824;SDS011;35714;55.708;37.478;2023-06-26T06:47:31;15.50;;;5.07;;
49824;SDS011;35714;55.708;37.478;2023-06-26T06:49:57;7.97;;;4.53;;
49824;SDS011;35714;55.708;37.478;2023-06-26T06:52:24;9.82;;;4.30;;
49824;SDS011;35714;55.708;37.478;2023-06-26T06:54:53;8.43;;;4.75;;
49824;SDS011;35714;55.708;37.478;2023-06-26T06:57:20;7.03;;;4.32;;
49824;SDS011;35714;55.708;37.478;2023-06-26T06:59:46;6.47;;;4.20;;
49824;SDS011;35714;55.708;37.478;2023-06-26T07:02:14;6.95;;;4.35;;
49824;SDS011;35714;55.708;37.478;2023-06-26T07:04:41;9.38;;;4.05;;
49824;SDS011;35714;55.708;37.478;2023-06-26T07:07:07;6.10;;;4.00;;
49824;SDS011;35714;55.708;37.478;2023-06-26T07:09:33;6.72;;;4.30;;
49824;SDS011;35714;55.708;37.478;2023-06-26T07:11:59;13.00;;;4.97;;
49824;SDS011;35714;55.708;37.478;2023-06-26T07:14:25;5.95;;;3.70;;
49824;SDS011;35714;55.708;37.478;2023-06-26T07:16:51;6.20;;;4.20;;
49824;SDS011;35714;55.708;37.478;2023-06-26T07:19:16;8.85;;;4.00;;
49824;SDS011;35714;55.708;37.478;2023-06-26T07:21:42;7.57;;;4.07;;
49824;SDS011;35714;55.708;37.478;2023-06-26T07:24:10;7.65;;;3.35;;
49824;SDS011;35714;55.708;37.478;2023-06-26T07:26:36;8.73;;;4.38;;
49824;SDS011;35714;55.708;37.478;2023-06-26T07:29:01;6.50;;;3.35;;
49824;SDS011;35714;55.708;37.478;2023-06-26T07:31:27;7.70;;;3.60;;
49824;SDS011;35714;55.708;37.478;2023-06-26T07:33:53;6.90;;;3.67;;
49824;SDS011;35714;55.708;37.478;2023-06-26T07:36:18;9.40;;;3.70;;
49824;SDS011;35714;55.708;37.478;2023-06-26T07:38:44;5.47;;;3.75;;
49824;SDS011;35714;55.708;37.478;2023-06-26T07:41:10;9.23;;;3.45;;
49824;SDS011;35714;55.708;37.478;2023-06-26T07:43:35;9.00;;;3.75;;
49824;SDS011;35714;55.708;37.478;2023-06-26T07:46:01;6.35;;;3.30;;
49824;SDS011;35714;55.708;37.478;2023-06-26T07:48:27;5.15;;;3.75;;
49824;SDS011;35714;55.708;37.478;2023-06-26T07:50:52;5.07;;;3.40;;
49824;SDS011;35714;55.708;37.478;2023-06-26T07:53:19;7.80;;;3.15;;
49824;SDS011;35714;55.708;37.478;2023-06-26T07:55:44;4.88;;;3.45;;
49824;SDS011;35714;55.708;37.478;2023-06-26T07:58:10;8.50;;;3.60;;
49824;SDS011;35714;55.708;37.478;2023-06-26T08:00:36;7.32;;;3.65;;
49824;SDS011;35714;55.708;37.478;2023-06-26T08:03:02;6.40;;;3.38;;
49824;SDS011;35714;55.708;37.478;2023-06-26T08:05:27;5.15;;;3.75;;
49824;SDS011;35714;55.708;37.478;2023-06-26T08:07:53;10.20;;;3.95;;
49824;SDS011;35714;55.708;37.478;2023-06-26T08:10:19;6.00;;;4.00;;
49824;SDS011;35714;55.708;37.478;2023-06-26T08:12:44;16.42;;;4.28;;
49824;SDS011;35714;55.708;37.478;2023-06-26T08:15:11;6.90;;;3.50;;
49824;SDS011;35714;55.708;37.478;2023-06-26T08:17:37;9.93;;;4.05;;
49824;SDS011;35714;55.708;37.478;2023-06-26T08:20:03;9.82;;;4.20;;
49824;SDS011;35714;55.708;37.478;2023-06-26T08:22:30;9.20;;;4.28;;
49824;SDS011;35714;55.708;37.478;2023-06-26T08:24:56;8.27;;;4.20;;
49824;SDS011;35714;55.708;37.478;2023-06-26T08:27:22;7.65;;;4.43;;
49824;SDS011;35714;55.708;37.478;2023-06-26T08:29:47;5.80;;;4.18;;
49824;SDS011;35714;55.708;37.478;2023-06-26T08:32:13;8.45;;;4.18;;
49824;SDS011;35714;55.708;37.478;2023-06-26T08:34:39;7.32;;;4.28;;
49824;SDS011;35714;55.708;37.478;2023-06-26T08:37:05;10.43;;;4.80;;
49824;SDS011;35714;55.708;37.478;2023-06-26T08:39:31;7.47;;;4.80;;
49824;SDS011;35714;55.708;37.478;2023-06-26T08:41:56;8.60;;;4.97;;
49824;SDS011;35714;55.708;37.478;2023-06-26T08:44:22;8.40;;;4.50;;
49824;SDS011;35714;55.708;37.478;2023-06-26T08:46:53;8.48;;;4.28;;
49824;SDS011;35714;55.708;37.478;2023-06-26T08:49:25;6.05;;;4.38;;
49824;SDS011;35714;55.708;37.478;2023-06-26T08:52:02;5.82;;;4.25;;
49824;SDS011;35714;55.708;37.478;2023-06-26T08:54:34;6.82;;;4.30;;
49824;SDS011;35714;55.708;37.478;2023-06-26T08:57:05;10.63;;;4.70;;
49824;SDS011;35714;55.708;37.478;2023-06-26T08:59:32;7.95;;;4.40;;
49824;SDS011;35714;55.708;37.478;2023-06-26T09:01:58;6.30;;;4.57;;
49824;SDS011;35714;55.708;37.478;2023-06-26T09:04:24;7.63;;;4.75;;
49824;SDS011;35714;55.708;37.478;2023-06-26T09:06:50;7.75;;;4.65;;
49824;SDS011;35714;55.708;37.478;2023-06-26T09:09:16;9.82;;;4.68;;
49824;SDS011;35714;55.708;37.478;2023-06-26T09:11:42;5.60;;;4.20;;
49824;SDS011;35714;55.708;37.478;2023-06-26T09:14:07;8.45;;;4.88;;
49824;SDS011;35714;55.708;37.478;2023-06-26T09:16:41;8.68;;;5.28;;
49824;SDS011;35714;55.708;37.478;2023-06-26T09:19:13;9.02;;;4.55;;
49824;SDS011;35714;55.708;37.478;2023-06-26T09:21:43;9.50;;;5.00;;
49824;SDS011;35714;55.708;37.478;2023-06-26T09:24:09;10.15;;;5.45;;
49824;SDS011;35714;55.708;37.478;2023-06-26T09:26:36;11.32;;;5.20;;
49824;SDS011;35714;55.708;37.478;2023-06-26T09:29:03;7.35;;;3.95;;
49824;SDS011;35714;55.708;37.478;2023-06-26T09:31:30;8.10;;;4.40;;
49824;SDS011;35714;55.708;37.478;2023-06-26T09:33:59;6.40;;;4.57;;
49824;SDS011;35714;55.708;37.478;2023-06-26T09:36:27;7.60;;;4.95;;
49824;SDS011;35714;55.708;37.478;2023-06-26T09:38:54;9.10;;;4.70;;
49824;SDS011;35714;55.708;37.478;2023-06-26T09:41:20;8.73;;;4.82;;
49824;SDS011;35714;55.708;37.478;2023-06-26T09:43:46;9.60;;;5.10;;
49824;SDS011;35714;55.708;37.478;2023-06-26T09:46:17;9.73;;;4.82;;
49824;SDS011;35714;55.708;37.478;2023-06-26T09:48:50;7.60;;;5.15;;
49824;SDS011;35714;55.708;37.478;2023-06-26T09:51:22;6.88;;;4.13;;
49824;SDS011;35714;55.708;37.478;2023-06-26T09:53:48;12.48;;;4.90;;
49824;SDS011;35714;55.708;37.478;2023-06-26T09:56:17;8.77;;;4.82;;
49824;SDS011;35714;55.708;37.478;2023-06-26T09:58:43;9.32;;;4.45;;
49824;SDS011;35714;55.708;37.478;2023-06-26T10:01:09;7.32;;;5.00;;
49824;SDS011;35714;55.708;37.478;2023-06-26T10:03:35;7.95;;;4.47;;
49824;SDS011;35714;55.708;37.478;2023-06-26T10:06:02;7.43;;;4.78;;
49824;SDS011;35714;55.708;37.478;2023-06-26T10:08:29;7.68;;;4.65;;
49824;SDS011;35714;55.708;37.478;2023-06-26T10:10:55;8.52;;;4.40;;
49824;SDS011;35714;55.708;37.478;2023-06-26T10:13:22;5.68;;;3.20;;
49824;SDS011;35714;55.708;37.478;2023-06-26T10:15:53;11.05;;;4.32;;
49824;SDS011;35714;55.708;37.478;2023-06-26T10:18:19;9.30;;;3.90;;
49824;SDS011;35714;55.708;37.478;2023-06-26T10:20:49;8.68;;;4.63;;
49824;SDS011;35714;55.708;37.478;2023-06-26T10:23:19;6.20;;;4.00;;
49824;SDS011;35714;55.708;37.478;2023-06-26T10:25:45;5.88;;;3.65;;
49824;SDS011;35714;55.708;37.478;2023-06-26T10:28:13;7.13;;;3.63;;
49824;SDS011;35714;55.708;37.478;2023-06-26T10:30:42;8.82;;;3.60;;
49824;SDS011;35714;55.708;37.478;2023-06-26T10:33:09;7.68;;;3.70;;
49824;SDS011;35714;55.708;37.478;2023-06-26T10:35:41;10.43;;;3.70;;
49824;SDS011;35714;55.708;37.478;2023-06-26T10:38:09;7.43;;;3.70;;
49824;SDS011;35714;55.708;37.478;2023-06-26T10:40:45;6.80;;;3.88;;
49824;SDS011;35714;55.708;37.478;2023-06-26T10:43:12;9.27;;;4.22;;
49824;SDS011;35714;55.708;37.478;2023-06-26T10:45:43;5.60;;;3.35;;
49824;SDS011;35714;55.708;37.478;2023-06-26T10:48:09;8.65;;;3.85;;
49824;SDS011;35714;55.708;37.478;2023-06-26T10:50:35;8.85;;;3.70;;
49824;SDS011;35714;55.708;37.478;2023-06-26T10:58:30;9.50;;;3.88;;
49824;SDS011;35714;55.708;37.478;2023-06-26T11:03:42;7.32;;;3.92;;
49824;SDS011;35714;55.708;37.478;2023-06-26T11:06:20;5.65;;;3.88;;
49824;SDS011;35714;55.708;37.478;2023-06-26T11:11:19;7.45;;;5.53;;
49824;SDS011;35714;55.708;37.478;2023-06-26T11:13:46;7.38;;;4.03;;
49824;SDS011;35714;55.708;37.478;2023-06-26T11:16:13;11.18;;;4.00;;
49824;SDS011;35714;55.708;37.478;2023-06-26T11:18:41;13.90;;;4.80;;
49824;SDS011;35714;55.708;37.478;2023-06-26T11:21:11;6.20;;;4.47;;
49824;SDS011;35714;55.708;37.478;2023-06-26T11:23:40;6.53;;;4.53;;
49824;SDS011;35714;55.708;37.478;2023-06-26T11:26:40;5.90;;;4.40;;
49824;SDS011;35714;55.708;37.478;2023-06-26T11:29:05;7.47;;;4.20;;
49824;SDS011;35714;55.708;37.478;2023-06-26T11:31:31;6.35;;;4.07;;
49824;SDS011;35714;55.708;37.478;2023-06-26T11:34:02;6.55;;;3.38;;
49824;SDS011;35714;55.708;37.478;2023-06-26T11:36:30;5.28;;;3.72;;
49824;SDS011;35714;55.708;37.478;2023-06-26T11:38:56;5.93;;;3.97;;
49824;SDS011;35714;55.708;37.478;2023-06-26T11:41:23;5.22;;;3.63;;
49824;SDS011;35714;55.708;37.478;2023-06-26T11:43:52;5.45;;;3.90;;
49824;SDS011;35714;55.708;37.478;2023-06-26T11:46:19;6.80;;;4.13;;
49824;SDS011;35714;55.708;37.478;2023-06-26T11:48:46;7.38;;;3.72;;
49824;SDS011;35714;55.708;37.478;2023-06-26T11:51:12;5.40;;;3.88;;
49824;SDS011;35714;55.708;37.478;2023-06-26T11:53:40;7.35;;;4.25;;
49824;SDS011;35714;55.708;37.478;2023-06-26T11:56:11;8.15;;;4.30;;
49824;SDS011;35714;55.708;37.478;2023-06-26T11:58:56;6.75;;;3.67;;
49824;SDS011;35714;55.708;37.478;2023-06-26T12:01:23;11.00;;;5.30;;
49824;SDS011;35714;55.708;37.478;2023-06-26T12:03:49;7.93;;;3.97;;
49824;SDS011;35714;55.708;37.478;2023-06-26T12:06:15;7.40;;;4.00;;
49824;SDS011;35714;55.708;37.478;2023-06-26T12:08:42;7.32;;;3.75;;
49824;SDS011;35714;55.708;37.478;2023-06-26T12:11:08;7.88;;;3.88;;
49824;SDS011;35714;55.708;37.478;2023-06-26T12:13:35;10.15;;;4.10;;
49824;SDS011;35714;55.708;37.478;2023-06-26T12:16:00;8.77;;;4.03;;
49824;SDS011;35714;55.708;37.478;2023-06-26T12:18:32;8.70;;;3.67;;
49824;SDS011;35714;55.708;37.478;2023-06-26T12:20:59;8.95;;;4.10;;
49824;SDS011;35714;55.708;37.478;2023-06-26T12:23:31;10.40;;;4.30;;
49824;SDS011;35714;55.708;37.478;2023-06-26T12:25:59;7.00;;;4.35;;
49824;SDS011;35714;55.708;37.478;2023-06-26T12:28:24;7.20;;;3.80;;
49824;SDS011;35714;55.708;37.478;2023-06-26T12:33:44;7.28;;;3.83;;
49824;SDS011;35714;55.708;37.478;2023-06-26T12:36:13;7.28;;;4.28;;
49824;SDS011;35714;55.708;37.478;2023-06-26T12:38:40;6.05;;;3.90;;
49824;SDS011;35714;55.708;37.478;2023-06-26T12:41:12;13.43;;;4.18;;
49824;SDS011;35714;55.708;37.478;2023-06-26T12:43:40;13.82;;;4.55;;
49824;SDS011;35714;55.708;37.478;2023-06-26T12:46:07;16.25;;;5.07;;
49824;SDS011;35714;55.708;37.478;2023-06-26T12:48:54;11.98;;;3.85;;
49824;SDS011;35714;55.708;37.478;2023-06-26T12:51:20;15.55;;;4.57;;
49824;SDS011;35714;55.708;37.478;2023-06-26T12:53:52;6.50;;;4.43;;
49824;SDS011;35714;55.708;37.478;2023-06-26T12:56:17;12.95;;;4.72;;
49824;SDS011;35714;55.708;37.478;2023-06-26T12:58:45;7.75;;;4.85;;
49824;SDS011;35714;55.708;37.478;2023-06-26T13:01:11;7.97;;;4.82;;
49824;SDS011;35714;55.708;37.478;2023-06-26T13:03:39;15.27;;;4.30;;
49824;SDS011;35714;55.708;37.478;2023-06-26T13:06:05;13.18;;;5.03;;
49824;SDS011;35714;55.708;37.478;2023-06-26T13:08:31;8.73;;;4.13;;
49824;SDS011;35714;55.708;37.478;2023-06-26T13:10:56;10.25;;;4.63;;
49824;SDS011;35714;55.708;37.478;2023-06-26T13:13:22;6.43;;;3.80;;
49824;SDS011;35714;55.708;37.478;2023-06-26T13:15:48;6.93;;;4.35;;
49824;SDS011;35714;55.708;37.478;2023-06-26T13:18:13;9.30;;;4.75;;
49824;SDS011;35714;55.708;37.478;2023-06-26T13:20:39;5.55;;;4.00;;
49824;SDS011;35714;55.708;37.478;2023-06-26T13:23:05;6.43;;;4.28;;
49824;SDS011;35714;55.708;37.478;2023-06-26T13:25:30;12.10;;;5.25;;
49824;SDS011;35714;55.708;37.478;2023-06-26T13:27:56;6.75;;;3.85;;
49824;SDS011;35714;55.708;37.478;2023-06-26T13:30:22;10.30;;;3.60;;
49824;SDS011;35714;55.708;37.478;2023-06-26T13:32:47;7.18;;;3.70;;
49824;SDS011;35714;55.708;37.478;2023-06-26T13:35:13;8.07;;;3.83;;
49824;SDS011;35714;55.708;37.478;2023-06-26T13:37:40;8.20;;;4.03;;
49824;SDS011;35714;55.708;37.478;2023-06-26T13:40:06;9.00;;;3.75;;
49824;SDS011;35714;55.708;37.478;2023-06-26T13:42:33;8.27;;;3.70;;
49824;SDS011;35714;55.708;37.478;2023-06-26T13:44:59;6.07;;;3.63;;
49824;SDS011;35714;55.708;37.478;2023-06-26T13:47:24;5.38;;;3.72;;
49824;SDS011;35714;55.708;37.478;2023-06-26T13:49:50;18.50;;;4.55;;
49824;SDS011;35714;55.708;37.478;2023-06-26T13:52:16;8.02;;;4.28;;
49824;SDS011;35714;55.708;37.478;2023-06-26T13:54:41;7.00;;;4.05;;
49824;SDS011;35714;55.708;37.478;2023-06-26T13:57:07;5.72;;;3.53;;
49824;SDS011;35714;55.708;37.478;2023-06-26T13:59:33;6.72;;;3.67;;
49824;SDS011;35714;55.708;37.478;2023-06-26T14:01:59;6.53;;;3.97;;
49824;SDS011;35714;55.708;37.478;2023-06-26T14:04:25;4.97;;;3.55;;
49824;SDS011;35714;55.708;37.478;2023-06-26T14:06:52;7.03;;;3.50;;
49824;SDS011;35714;55.708;37.478;2023-06-26T14:09:18;7.82;;;3.85;;
49824;SDS011;35714;55.708;37.478;2023-06-26T14:11:44;7.00;;;4.38;;
49824;SDS011;35714;55.708;37.478;2023-06-26T14:14:10;6.78;;;3.70;;
49824;SDS011;35714;55.708;37.478;2023-06-26T14:16:36;11.52;;;3.70;;
49824;SDS011;35714;55.708;37.478;2023-06-26T14:19:01;4.55;;;3.28;;
49824;SDS011;35714;55.708;37.478;2023-06-26T14:21:27;9.95;;;3.70;;
49824;SDS011;35714;55.708;37.478;2023-06-26T14:23:54;6.13;;;3.80;;
49824;SDS011;35714;55.708;37.478;2023-06-26T14:26:20;6.25;;;3.35;;
49824;SDS011;35714;55.708;37.478;2023-06-26T14:28:46;6.28;;;3.38;;
49824;SDS011;35714;55.708;37.478;2023-06-26T14:31:12;9.23;;;4.30;;
49824;SDS011;35714;55.708;37.478;2023-06-26T14:33:38;8.07;;;3.42;;
49824;SDS011;35714;55.708;37.478;2023-06-26T14:36:04;5.18;;;3.63;;
49824;SDS011;35714;55.708;37.478;2023-06-26T14:38:30;6.28;;;3.30;;
49824;SDS011;35714;55.708;37.478;2023-06-26T14:40:56;5.43;;;3.42;;
49824;SDS011;35714;55.708;37.478;2023-06-26T14:43:22;6.82;;;3.80;;
49824;SDS011;35714;55.708;37.478;2023-06-26T14:45:47;4.07;;;2.80;;